sensor_id;sensor_type;location;lat;lon;timestamp;P1;P2;P0
74333;PMS5003;62753;40.394;-80.022;2024-03-02T00:01:55;1;1;
74333;PMS5003;62753;40.394;-80.022;2024-03-02T00:04:21;5;2;
74333;PMS5003;62753;40.394;-80.022;2024-03-02T00:06:46;4;3;
74333;PMS5003;62753;40.394;-80.022;2024-03-02T00:09:11;4;4;
74333;PMS5003;62753;40.394;-80.022;2024-03-02T00:11:38;3;3;
74333;PMS5003;62753;40.394;-80.022;2024-03-02T00:14:02;4;3;
74333;PMS5003;62753;40.394;-80.022;2024-03-02T00:16:29;2;1;
74333;PMS5003;62753;40.394;-80.022;2024-03-02T00:18:53;3;3;
74333;PMS5003;62753;40.394;-80.022;2024-03-02T00:21:21;3;3;
74333;PMS5003;62753;40.394;-80.022;2024-03-02T00:23:44;3;3;
74333;PMS5003;62753;40.394;-80.022;2024-03-02T00:26:11;3;2;
74333;PMS5003;62753;40.394;-80.022;2024-03-02T00:28:37;4;3;
74333;PMS5003;62753;40.394;-80.022;2024-03-02T00:31:02;3;3;
74333;PMS5003;62753;40.394;-80.022;2024-03-02T00:33:28;6;4;
74333;PMS5003;62753;40.394;-80.022;2024-03-02T00:35:51;4;2;
74333;PMS5003;62753;40.394;-80.022;2024-03-02T00:38:17;3;3;
74333;PMS5003;62753;40.394;-80.022;2024-03-02T00:40:42;3;3;
74333;PMS5003;62753;40.394;-80.022;2024-03-02T00:43:09;3;2;
74333;PMS5003;62753;40.394;-80.022;2024-03-02T00:45:34;3;3;
74333;PMS5003;62753;40.394;-80.022;2024-03-02T00:48:00;3;2;
74333;PMS5003;62753;40.394;-80.022;2024-03-02T00:50:24;2;2;
74333;PMS5003;62753;40.394;-80.022;2024-03-02T00:52:49;3;3;
74333;PMS5003;62753;40.394;-80.022;2024-03-02T00:55:15;3;2;
74333;PMS5003;62753;40.394;-80.022;2024-03-02T00:57:42;4;4;
74333;PMS5003;62753;40.394;-80.022;2024-03-02T01:00:07;5;3;
74333;PMS5003;62753;40.394;-80.022;2024-03-02T01:02:32;5;4;
74333;PMS5003;62753;40.394;-80.022;2024-03-02T01:04:56;3;3;
74333;PMS5003;62753;40.394;-80.022;2024-03-02T01:07:22;3;2;
74333;PMS5003;62753;40.394;-80.022;2024-03-02T01:09:50;5;2;
74333;PMS5003;62753;40.394;-80.022;2024-03-02T01:12:14;5;4;
74333;PMS5003;62753;40.394;-80.022;2024-03-02T01:14:39;3;3;
74333;PMS5003;62753;40.394;-80.022;2024-03-02T01:17:04;4;3;
74333;PMS5003;62753;40.394;-80.022;2024-03-02T01:19:30;8;7;
74333;PMS5003;62753;40.394;-80.022;2024-03-02T01:21:55;16;15;
74333;PMS5003;62753;40.394;-80.022;2024-03-02T01:24:20;3;3;
74333;PMS5003;62753;40.394;-80.022;2024-03-02T01:26:47;4;4;
74333;PMS5003;62753;40.394;-80.022;2024-03-02T01:29:13;4;2;
74333;PMS5003;62753;40.394;-80.022;2024-03-02T01:31:38;3;2;
74333;PMS5003;62753;40.394;-80.022;2024-03-02T01:34:02;3;3;
74333;PMS5003;62753;40.394;-80.022;2024-03-02T01:36:28;4;3;
74333;PMS5003;62753;40.394;-80.022;2024-03-02T01:38:53;4;4;
74333;PMS5003;62753;40.394;-80.022;2024-03-02T01:41:18;2;2;
74333;PMS5003;62753;40.394;-80.022;2024-03-02T01:43:45;5;3;
74333;PMS5003;62753;40.394;-80.022;2024-03-02T01:46:09;3;3;
74333;PMS5003;62753;40.394;-80.022;2024-03-02T01:48:42;9;6;
74333;PMS5003;62753;40.394;-80.022;2024-03-02T01:51:02;2;2;
74333;PMS5003;62753;40.394;-80.022;2024-03-02T01:53:27;2;1;
74333;PMS5003;62753;40.394;-80.022;2024-03-02T01:55:51;4;4;
74333;PMS5003;62753;40.394;-80.022;2024-03-02T01:58:17;5;4;
74333;PMS5003;62753;40.394;-80.022;2024-03-02T02:00:42;4;3;
74333;PMS5003;62753;40.394;-80.022;2024-03-02T02:03:08;5;4;
74333;PMS5003;62753;40.394;-80.022;2024-03-02T02:05:33;4;4;
74333;PMS5003;62753;40.394;-80.022;2024-03-02T02:07:59;6;4;
74333;PMS5003;62753;40.394;-80.022;2024-03-02T02:10:24;4;4;
74333;PMS5003;62753;40.394;-80.022;2024-03-02T02:12:50;4;3;
74333;PMS5003;62753;40.394;-80.022;2024-03-02T02:15:23;3;3;
74333;PMS5003;62753;40.394;-80.022;2024-03-02T02:17:41;4;3;
74333;PMS5003;62753;40.394;-80.022;2024-03-02T02:20:10;2;2;
74333;PMS5003;62753;40.394;-80.022;2024-03-02T02:22:33;5;5;
74333;PMS5003;62753;40.394;-80.022;2024-03-02T02:24:58;2;2;
74333;PMS5003;62753;40.394;-80.022;2024-03-02T02:27:29;4;3;
74333;PMS5003;62753;40.394;-80.022;2024-03-02T02:29:49;3;3;
74333;PMS5003;62753;40.394;-80.022;2024-03-02T02:32:14;3;3;
74333;PMS5003;62753;40.394;-80.022;2024-03-02T02:34:40;3;3;
74333;PMS5003;62753;40.394;-80.022;2024-03-02T02:37:06;6;3;
74333;PMS5003;62753;40.394;-80.022;2024-03-02T02:39:31;4;4;
74333;PMS5003;62753;40.394;-80.022;2024-03-02T02:41:57;6;4;
74333;PMS5003;62753;40.394;-80.022;2024-03-02T02:44:22;6;5;
74333;PMS5003;62753;40.394;-80.022;2024-03-02T02:46:50;4;4;
74333;PMS5003;62753;40.394;-80.022;2024-03-02T02:49:13;4;4;
74333;PMS5003;62753;40.394;-80.022;2024-03-02T02:51:39;6;6;
74333;PMS5003;62753;40.394;-80.022;2024-03-02T02:54:04;5;4;
74333;PMS5003;62753;40.394;-80.022;2024-03-02T02:56:30;3;2;
74333;PMS5003;62753;40.394;-80.022;2024-03-02T02:58:55;6;6;
74333;PMS5003;62753;40.394;-80.022;2024-03-02T03:01:20;6;4;
74333;PMS5003;62753;40.394;-80.022;2024-03-02T03:03:47;7;6;
74333;PMS5003;62753;40.394;-80.022;2024-03-02T03:06:11;6;6;
74333;PMS5003;62753;40.394;-80.022;2024-03-02T03:08:40;6;5;
74333;PMS5003;62753;40.394;-80.022;2024-03-02T03:11:03;7;5;
74333;PMS5003;62753;40.394;-80.022;2024-03-02T03:13:28;4;4;
74333;PMS5003;62753;40.394;-80.022;2024-03-02T03:15:53;5;5;
74333;PMS5003;62753;40.394;-80.022;2024-03-02T03:18:19;5;5;
74333;PMS5003;62753;40.394;-80.022;2024-03-02T03:20:44;8;6;
74333;PMS5003;62753;40.394;-80.022;2024-03-02T03:23:10;5;5;
74333;PMS5003;62753;40.394;-80.022;2024-03-02T03:25:36;4;4;
74333;PMS5003;62753;40.394;-80.022;2024-03-02T03:28:00;5;4;
74333;PMS5003;62753;40.394;-80.022;2024-03-02T03:30:27;4;4;
74333;PMS5003;62753;40.394;-80.022;2024-03-02T03:32:55;8;6;
74333;PMS5003;62753;40.394;-80.022;2024-03-02T03:35:19;4;4;
74333;PMS5003;62753;40.394;-80.022;2024-03-02T03:37:43;4;4;
74333;PMS5003;62753;40.394;-80.022;2024-03-02T03:40:08;5;4;
74333;PMS5003;62753;40.394;-80.022;2024-03-02T03:42:34;6;5;
74333;PMS5003;62753;40.394;-80.022;2024-03-02T03:45:00;4;4;
74333;PMS5003;62753;40.394;-80.022;2024-03-02T03:47:26;6;6;
74333;PMS5003;62753;40.394;-80.022;2024-03-02T03:49:50;7;5;
74333;PMS5003;62753;40.394;-80.022;2024-03-02T03:52:17;5;5;
74333;PMS5003;62753;40.394;-80.022;2024-03-02T03:54:42;4;4;
74333;PMS5003;62753;40.394;-80.022;2024-03-02T03:57:08;7;6;
74333;PMS5003;62753;40.394;-80.022;2024-03-02T03:59:34;6;5;
74333;PMS5003;62753;40.394;-80.022;2024-03-02T04:01:58;6;5;
74333;PMS5003;62753;40.394;-80.022;2024-03-02T04:04:23;5;5;
74333;PMS5003;62753;40.394;-80.022;2024-03-02T04:06:49;6;6;
74333;PMS5003;62753;40.394;-80.022;2024-03-02T04:09:14;6;4;
74333;PMS5003;62753;40.394;-80.022;2024-03-02T04:11:40;6;5;
74333;PMS5003;62753;40.394;-80.022;2024-03-02T04:14:05;5;4;
74333;PMS5003;62753;40.394;-80.022;2024-03-02T04:16:32;5;4;
74333;PMS5003;62753;40.394;-80.022;2024-03-02T04:18:58;5;5;
74333;PMS5003;62753;40.394;-80.022;2024-03-02T04:21:22;4;3;
74333;PMS5003;62753;40.394;-80.022;2024-03-02T04:23:49;5;4;
74333;PMS5003;62753;40.394;-80.022;2024-03-02T04:26:13;5;3;
74333;PMS5003;62753;40.394;-80.022;2024-03-02T04:28:39;6;6;
74333;PMS5003;62753;40.394;-80.022;2024-03-02T04:31:04;5;5;
74333;PMS5003;62753;40.394;-80.022;2024-03-02T04:33:30;5;5;
74333;PMS5003;62753;40.394;-80.022;2024-03-02T04:35:55;5;4;
74333;PMS5003;62753;40.394;-80.022;2024-03-02T04:38:21;6;5;
74333;PMS5003;62753;40.394;-80.022;2024-03-02T04:40:46;6;6;
74333;PMS5003;62753;40.394;-80.022;2024-03-02T04:43:13;7;6;
74333;PMS5003;62753;40.394;-80.022;2024-03-02T04:45:38;8;7;
74333;PMS5003;62753;40.394;-80.022;2024-03-02T04:48:03;5;5;
74333;PMS5003;62753;40.394;-80.022;2024-03-02T04:50:28;5;4;
74333;PMS5003;62753;40.394;-80.022;2024-03-02T04:52:54;6;6;
74333;PMS5003;62753;40.394;-80.022;2024-03-02T04:55:21;5;5;
74333;PMS5003;62753;40.394;-80.022;2024-03-02T04:57:45;5;5;
74333;PMS5003;62753;40.394;-80.022;2024-03-02T05:00:11;5;4;
74333;PMS5003;62753;40.394;-80.022;2024-03-02T05:02:36;6;5;
74333;PMS5003;62753;40.394;-80.022;2024-03-02T05:05:01;5;5;
74333;PMS5003;62753;40.394;-80.022;2024-03-02T05:07:27;6;5;
74333;PMS5003;62753;40.394;-80.022;2024-03-02T05:09:54;6;4;
74333;PMS5003;62753;40.394;-80.022;2024-03-02T05:12:19;8;7;
74333;PMS5003;62753;40.394;-80.022;2024-03-02T05:14:44;8;8;
74333;PMS5003;62753;40.394;-80.022;2024-03-02T05:17:09;8;6;
74333;PMS5003;62753;40.394;-80.022;2024-03-02T05:19:34;9;5;
74333;PMS5003;62753;40.394;-80.022;2024-03-02T05:21:59;6;5;
74333;PMS5003;62753;40.394;-80.022;2024-03-02T05:24:25;7;7;
74333;PMS5003;62753;40.394;-80.022;2024-03-02T05:26:50;8;7;
74333;PMS5003;62753;40.394;-80.022;2024-03-02T05:29:16;7;7;
74333;PMS5003;62753;40.394;-80.022;2024-03-02T05:31:41;7;6;
74333;PMS5003;62753;40.394;-80.022;2024-03-02T05:34:08;8;6;
74333;PMS5003;62753;40.394;-80.022;2024-03-02T05:36:34;6;6;
74333;PMS5003;62753;40.394;-80.022;2024-03-02T05:38:57;8;7;
74333;PMS5003;62753;40.394;-80.022;2024-03-02T05:41:23;7;6;
74333;PMS5003;62753;40.394;-80.022;2024-03-02T05:43:49;8;8;
74333;PMS5003;62753;40.394;-80.022;2024-03-02T05:46:15;7;7;
74333;PMS5003;62753;40.394;-80.022;2024-03-02T05:48:40;6;5;
74333;PMS5003;62753;40.394;-80.022;2024-03-02T05:51:12;7;6;
74333;PMS5003;62753;40.394;-80.022;2024-03-02T05:53:30;5;4;
74333;PMS5003;62753;40.394;-80.022;2024-03-02T05:55:57;6;6;
74333;PMS5003;62753;40.394;-80.022;2024-03-02T05:58:21;8;8;
74333;PMS5003;62753;40.394;-80.022;2024-03-02T06:00:47;8;6;
74333;PMS5003;62753;40.394;-80.022;2024-03-02T06:03:14;9;9;
74333;PMS5003;62753;40.394;-80.022;2024-03-02T06:05:38;7;6;
74333;PMS5003;62753;40.394;-80.022;2024-03-02T06:08:04;8;7;
74333;PMS5003;62753;40.394;-80.022;2024-03-02T06:10:30;10;9;
74333;PMS5003;62753;40.394;-80.022;2024-03-02T06:12:54;10;9;
74333;PMS5003;62753;40.394;-80.022;2024-03-02T06:15:22;7;7;
74333;PMS5003;62753;40.394;-80.022;2024-03-02T06:17:46;12;10;
74333;PMS5003;62753;40.394;-80.022;2024-03-02T06:20:11;13;10;
74333;PMS5003;62753;40.394;-80.022;2024-03-02T06:22:36;12;11;
74333;PMS5003;62753;40.394;-80.022;2024-03-02T06:25:03;13;11;
74333;PMS5003;62753;40.394;-80.022;2024-03-02T06:27:26;12;11;
74333;PMS5003;62753;40.394;-80.022;2024-03-02T06:29:52;14;12;
74333;PMS5003;62753;40.394;-80.022;2024-03-02T06:32:17;15;14;
74333;PMS5003;62753;40.394;-80.022;2024-03-02T06:34:43;12;11;
74333;PMS5003;62753;40.394;-80.022;2024-03-02T06:37:08;15;13;
74333;PMS5003;62753;40.394;-80.022;2024-03-02T06:39:34;13;12;
74333;PMS5003;62753;40.394;-80.022;2024-03-02T06:41:59;15;14;
74333;PMS5003;62753;40.394;-80.022;2024-03-02T06:44:24;19;17;
74333;PMS5003;62753;40.394;-80.022;2024-03-02T06:46:50;21;16;
74333;PMS5003;62753;40.394;-80.022;2024-03-02T06:49:17;16;16;
74333;PMS5003;62753;40.394;-80.022;2024-03-02T06:51:43;20;18;
74333;PMS5003;62753;40.394;-80.022;2024-03-02T06:54:07;15;15;
74333;PMS5003;62753;40.394;-80.022;2024-03-02T06:56:34;17;17;
74333;PMS5003;62753;40.394;-80.022;2024-03-02T06:58:57;22;18;
74333;PMS5003;62753;40.394;-80.022;2024-03-02T07:01:24;13;12;
74333;PMS5003;62753;40.394;-80.022;2024-03-02T07:03:48;18;15;
74333;PMS5003;62753;40.394;-80.022;2024-03-02T07:06:14;16;13;
74333;PMS5003;62753;40.394;-80.022;2024-03-02T07:08:40;13;13;
74333;PMS5003;62753;40.394;-80.022;2024-03-02T07:11:04;14;13;
74333;PMS5003;62753;40.394;-80.022;2024-03-02T07:13:29;14;14;
74333;PMS5003;62753;40.394;-80.022;2024-03-02T07:15:55;16;15;
74333;PMS5003;62753;40.394;-80.022;2024-03-02T07:18:21;16;14;
74333;PMS5003;62753;40.394;-80.022;2024-03-02T07:20:48;13;12;
74333;PMS5003;62753;40.394;-80.022;2024-03-02T07:23:12;17;16;
74333;PMS5003;62753;40.394;-80.022;2024-03-02T07:25:38;16;15;
74333;PMS5003;62753;40.394;-80.022;2024-03-02T07:28:04;21;14;
74333;PMS5003;62753;40.394;-80.022;2024-03-02T07:30:28;15;15;
74333;PMS5003;62753;40.394;-80.022;2024-03-02T07:32:54;14;13;
74333;PMS5003;62753;40.394;-80.022;2024-03-02T07:35:19;16;15;
74333;PMS5003;62753;40.394;-80.022;2024-03-02T07:37:44;15;13;
74333;PMS5003;62753;40.394;-80.022;2024-03-02T07:40:10;13;13;
74333;PMS5003;62753;40.394;-80.022;2024-03-02T07:42:36;15;12;
74333;PMS5003;62753;40.394;-80.022;2024-03-02T07:45:00;14;12;
74333;PMS5003;62753;40.394;-80.022;2024-03-02T07:47:26;11;10;
74333;PMS5003;62753;40.394;-80.022;2024-03-02T07:49:51;12;12;
74333;PMS5003;62753;40.394;-80.022;2024-03-02T07:52:16;13;12;
74333;PMS5003;62753;40.394;-80.022;2024-03-02T07:54:42;13;13;
74333;PMS5003;62753;40.394;-80.022;2024-03-02T07:57:07;12;10;
74333;PMS5003;62753;40.394;-80.022;2024-03-02T07:59:34;13;13;
74333;PMS5003;62753;40.394;-80.022;2024-03-02T08:01:58;13;13;
74333;PMS5003;62753;40.394;-80.022;2024-03-02T08:04:26;11;11;
74333;PMS5003;62753;40.394;-80.022;2024-03-02T08:06:49;10;9;
74333;PMS5003;62753;40.394;-80.022;2024-03-02T08:09:14;9;9;
74333;PMS5003;62753;40.394;-80.022;2024-03-02T08:11:40;9;9;
74333;PMS5003;62753;40.394;-80.022;2024-03-02T08:14:05;11;11;
74333;PMS5003;62753;40.394;-80.022;2024-03-02T08:16:33;13;11;
74333;PMS5003;62753;40.394;-80.022;2024-03-02T08:18:55;6;6;
74333;PMS5003;62753;40.394;-80.022;2024-03-02T08:21:22;11;10;
74333;PMS5003;62753;40.394;-80.022;2024-03-02T08:23:46;9;9;
74333;PMS5003;62753;40.394;-80.022;2024-03-02T08:26:12;9;9;
74333;PMS5003;62753;40.394;-80.022;2024-03-02T08:28:39;12;11;
74333;PMS5003;62753;40.394;-80.022;2024-03-02T08:31:03;10;10;
74333;PMS5003;62753;40.394;-80.022;2024-03-02T08:33:28;11;9;
74333;PMS5003;62753;40.394;-80.022;2024-03-02T08:35:54;10;9;
74333;PMS5003;62753;40.394;-80.022;2024-03-02T08:38:19;10;9;
74333;PMS5003;62753;40.394;-80.022;2024-03-02T08:40:45;12;12;
74333;PMS5003;62753;40.394;-80.022;2024-03-02T08:43:10;12;11;
74333;PMS5003;62753;40.394;-80.022;2024-03-02T08:45:36;8;8;
74333;PMS5003;62753;40.394;-80.022;2024-03-02T08:48:01;11;10;
74333;PMS5003;62753;40.394;-80.022;2024-03-02T08:50:28;14;11;
74333;PMS5003;62753;40.394;-80.022;2024-03-02T08:52:53;10;9;
74333;PMS5003;62753;40.394;-80.022;2024-03-02T08:55:19;11;10;
74333;PMS5003;62753;40.394;-80.022;2024-03-02T08:57:43;10;10;
74333;PMS5003;62753;40.394;-80.022;2024-03-02T09:00:09;12;12;
74333;PMS5003;62753;40.394;-80.022;2024-03-02T09:02:35;11;9;
74333;PMS5003;62753;40.394;-80.022;2024-03-02T09:04:59;14;14;
74333;PMS5003;62753;40.394;-80.022;2024-03-02T09:07:25;10;10;
74333;PMS5003;62753;40.394;-80.022;2024-03-02T09:09:50;12;11;
74333;PMS5003;62753;40.394;-80.022;2024-03-02T09:12:16;10;8;
74333;PMS5003;62753;40.394;-80.022;2024-03-02T09:14:41;9;9;
74333;PMS5003;62753;40.394;-80.022;2024-03-02T09:17:07;9;9;
74333;PMS5003;62753;40.394;-80.022;2024-03-02T09:19:32;10;8;
74333;PMS5003;62753;40.394;-80.022;2024-03-02T09:21:57;7;7;
74333;PMS5003;62753;40.394;-80.022;2024-03-02T09:24:23;10;9;
74333;PMS5003;62753;40.394;-80.022;2024-03-02T09:26:53;6;6;
74333;PMS5003;62753;40.394;-80.022;2024-03-02T09:29:15;9;9;
74333;PMS5003;62753;40.394;-80.022;2024-03-02T09:31:40;8;7;
74333;PMS5003;62753;40.394;-80.022;2024-03-02T09:34:05;10;9;
74333;PMS5003;62753;40.394;-80.022;2024-03-02T09:36:31;11;10;
74333;PMS5003;62753;40.394;-80.022;2024-03-02T09:38:56;9;8;
74333;PMS5003;62753;40.394;-80.022;2024-03-02T09:41:21;9;9;
74333;PMS5003;62753;40.394;-80.022;2024-03-02T09:43:46;10;10;
74333;PMS5003;62753;40.394;-80.022;2024-03-02T09:46:13;13;10;
74333;PMS5003;62753;40.394;-80.022;2024-03-02T09:48:43;7;7;
74333;PMS5003;62753;40.394;-80.022;2024-03-02T09:51:06;10;9;
74333;PMS5003;62753;40.394;-80.022;2024-03-02T09:53:31;9;8;
74333;PMS5003;62753;40.394;-80.022;2024-03-02T09:55:55;8;8;
74333;PMS5003;62753;40.394;-80.022;2024-03-02T09:58:19;10;9;
74333;PMS5003;62753;40.394;-80.022;2024-03-02T10:00:45;11;11;
74333;PMS5003;62753;40.394;-80.022;2024-03-02T10:03:11;10;10;
74333;PMS5003;62753;40.394;-80.022;2024-03-02T10:05:40;14;10;
74333;PMS5003;62753;40.394;-80.022;2024-03-02T10:08:01;15;13;
74333;PMS5003;62753;40.394;-80.022;2024-03-02T10:10:27;17;12;
74333;PMS5003;62753;40.394;-80.022;2024-03-02T10:12:54;12;12;
74333;PMS5003;62753;40.394;-80.022;2024-03-02T10:17:42;21;16;
74333;PMS5003;62753;40.394;-80.022;2024-03-02T10:22:34;16;12;
74333;PMS5003;62753;40.394;-80.022;2024-03-02T10:25:00;21;15;
74333;PMS5003;62753;40.394;-80.022;2024-03-02T10:27:26;15;12;
74333;PMS5003;62753;40.394;-80.022;2024-03-02T10:29:50;14;13;
74333;PMS5003;62753;40.394;-80.022;2024-03-02T10:32:16;12;12;
74333;PMS5003;62753;40.394;-80.022;2024-03-02T10:34:41;14;12;
74333;PMS5003;62753;40.394;-80.022;2024-03-02T10:37:07;13;12;
74333;PMS5003;62753;40.394;-80.022;2024-03-02T10:39:32;16;12;
74333;PMS5003;62753;40.394;-80.022;2024-03-02T10:41:57;14;12;
74333;PMS5003;62753;40.394;-80.022;2024-03-02T10:44:22;12;12;
74333;PMS5003;62753;40.394;-80.022;2024-03-02T10:46:49;13;13;
74333;PMS5003;62753;40.394;-80.022;2024-03-02T10:49:14;12;12;
74333;PMS5003;62753;40.394;-80.022;2024-03-02T10:51:40;12;11;
74333;PMS5003;62753;40.394;-80.022;2024-03-02T10:54:04;9;9;
74333;PMS5003;62753;40.394;-80.022;2024-03-02T10:56:30;11;10;
74333;PMS5003;62753;40.394;-80.022;2024-03-02T10:58:55;9;9;
74333;PMS5003;62753;40.394;-80.022;2024-03-02T11:01:20;8;8;
74333;PMS5003;62753;40.394;-80.022;2024-03-02T11:03:48;10;9;
74333;PMS5003;62753;40.394;-80.022;2024-03-02T11:06:12;9;8;
74333;PMS5003;62753;40.394;-80.022;2024-03-02T11:08:37;9;7;
74333;PMS5003;62753;40.394;-80.022;2024-03-02T11:11:03;10;10;
74333;PMS5003;62753;40.394;-80.022;2024-03-02T11:13:31;7;7;
74333;PMS5003;62753;40.394;-80.022;2024-03-02T11:15:55;11;10;
74333;PMS5003;62753;40.394;-80.022;2024-03-02T11:18:19;9;8;
74333;PMS5003;62753;40.394;-80.022;2024-03-02T11:20:45;10;10;
74333;PMS5003;62753;40.394;-80.022;2024-03-02T11:23:09;8;7;
74333;PMS5003;62753;40.394;-80.022;2024-03-02T11:25:36;7;7;
74333;PMS5003;62753;40.394;-80.022;2024-03-02T11:28:01;7;7;
74333;PMS5003;62753;40.394;-80.022;2024-03-02T11:32:54;8;8;
74333;PMS5003;62753;40.394;-80.022;2024-03-02T11:35:16;11;10;
74333;PMS5003;62753;40.394;-80.022;2024-03-02T11:37:41;6;6;
74333;PMS5003;62753;40.394;-80.022;2024-03-02T11:40:07;8;8;
74333;PMS5003;62753;40.394;-80.022;2024-03-02T11:42:32;9;6;
74333;PMS5003;62753;40.394;-80.022;2024-03-02T11:44:57;6;6;
74333;PMS5003;62753;40.394;-80.022;2024-03-02T11:47:23;6;6;
74333;PMS5003;62753;40.394;-80.022;2024-03-02T11:49:49;5;5;
74333;PMS5003;62753;40.394;-80.022;2024-03-02T11:52:14;6;5;
74333;PMS5003;62753;40.394;-80.022;2024-03-02T11:54:41;7;7;
74333;PMS5003;62753;40.394;-80.022;2024-03-02T11:57:05;7;6;
74333;PMS5003;62753;40.394;-80.022;2024-03-02T11:59:30;7;6;
74333;PMS5003;62753;40.394;-80.022;2024-03-02T12:01:57;6;4;
74333;PMS5003;62753;40.394;-80.022;2024-03-02T12:04:26;7;6;
74333;PMS5003;62753;40.394;-80.022;2024-03-02T12:06:47;8;7;
74333;PMS5003;62753;40.394;-80.022;2024-03-02T12:09:12;6;6;
74333;PMS5003;62753;40.394;-80.022;2024-03-02T12:11:37;8;7;
74333;PMS5003;62753;40.394;-80.022;2024-03-02T12:14:03;8;8;
74333;PMS5003;62753;40.394;-80.022;2024-03-02T12:16:28;7;7;
74333;PMS5003;62753;40.394;-80.022;2024-03-02T12:18:54;8;5;
74333;PMS5003;62753;40.394;-80.022;2024-03-02T12:21:19;7;6;
74333;PMS5003;62753;40.394;-80.022;2024-03-02T12:23:44;6;5;
74333;PMS5003;62753;40.394;-80.022;2024-03-02T12:26:10;7;7;
74333;PMS5003;62753;40.394;-80.022;2024-03-02T12:28:35;6;6;
74333;PMS5003;62753;40.394;-80.022;2024-03-02T12:31:00;9;8;
74333;PMS5003;62753;40.394;-80.022;2024-03-02T12:33:26;7;7;
74333;PMS5003;62753;40.394;-80.022;2024-03-02T12:35:51;7;7;
74333;PMS5003;62753;40.394;-80.022;2024-03-02T12:38:18;7;7;
74333;PMS5003;62753;40.394;-80.022;2024-03-02T12:40:42;7;7;
74333;PMS5003;62753;40.394;-80.022;2024-03-02T12:43:09;7;7;
74333;PMS5003;62753;40.394;-80.022;2024-03-02T12:45:33;9;9;
74333;PMS5003;62753;40.394;-80.022;2024-03-02T12:48:00;9;9;
74333;PMS5003;62753;40.394;-80.022;2024-03-02T12:50:24;8;7;
74333;PMS5003;62753;40.394;-80.022;2024-03-02T12:52:51;7;7;
74333;PMS5003;62753;40.394;-80.022;2024-03-02T12:55:15;9;9;
74333;PMS5003;62753;40.394;-80.022;2024-03-02T12:57:40;7;7;
74333;PMS5003;62753;40.394;-80.022;2024-03-02T13:00:07;7;7;
74333;PMS5003;62753;40.394;-80.022;2024-03-02T13:02:33;7;7;
74333;PMS5003;62753;40.394;-80.022;2024-03-02T13:04:57;7;7;
74333;PMS5003;62753;40.394;-80.022;2024-03-02T13:07:22;10;8;
74333;PMS5003;62753;40.394;-80.022;2024-03-02T13:09:47;9;7;
74333;PMS5003;62753;40.394;-80.022;2024-03-02T13:12:14;7;7;
74333;PMS5003;62753;40.394;-80.022;2024-03-02T13:14:38;7;7;
74333;PMS5003;62753;40.394;-80.022;2024-03-02T13:17:05;7;7;
74333;PMS5003;62753;40.394;-80.022;2024-03-02T13:19:30;6;6;
74333;PMS5003;62753;40.394;-80.022;2024-03-02T13:21:54;6;6;
74333;PMS5003;62753;40.394;-80.022;2024-03-02T13:24:20;5;5;
74333;PMS5003;62753;40.394;-80.022;2024-03-02T13:26:47;3;3;
74333;PMS5003;62753;40.394;-80.022;2024-03-02T13:29:10;5;5;
74333;PMS5003;62753;40.394;-80.022;2024-03-02T13:31:36;5;4;
74333;PMS5003;62753;40.394;-80.022;2024-03-02T13:34:01;3;2;
74333;PMS5003;62753;40.394;-80.022;2024-03-02T13:36:27;3;2;
74333;PMS5003;62753;40.394;-80.022;2024-03-02T13:38:52;2;2;
74333;PMS5003;62753;40.394;-80.022;2024-03-02T13:41:19;3;3;
74333;PMS5003;62753;40.394;-80.022;2024-03-02T13:43:43;3;3;
74333;PMS5003;62753;40.394;-80.022;2024-03-02T13:46:08;2;2;
74333;PMS5003;62753;40.394;-80.022;2024-03-02T13:48:34;2;2;
74333;PMS5003;62753;40.394;-80.022;2024-03-02T13:50:59;2;2;
74333;PMS5003;62753;40.394;-80.022;2024-03-02T13:53:25;3;3;
74333;PMS5003;62753;40.394;-80.022;2024-03-02T13:55:52;1;1;
74333;PMS5003;62753;40.394;-80.022;2024-03-02T13:58:17;3;3;
74333;PMS5003;62753;40.394;-80.022;2024-03-02T14:00:41;3;3;
74333;PMS5003;62753;40.394;-80.022;2024-03-02T14:03:06;2;2;
74333;PMS5003;62753;40.394;-80.022;2024-03-02T14:05:33;1;1;
74333;PMS5003;62753;40.394;-80.022;2024-03-02T14:07:57;2;2;
74333;PMS5003;62753;40.394;-80.022;2024-03-02T14:10:24;2;1;
74333;PMS5003;62753;40.394;-80.022;2024-03-02T14:12:48;3;3;
74333;PMS5003;62753;40.394;-80.022;2024-03-02T14:15:15;2;2;
74333;PMS5003;62753;40.394;-80.022;2024-03-02T14:17:40;8;7;
74333;PMS5003;62753;40.394;-80.022;2024-03-02T14:20:05;7;5;
74333;PMS5003;62753;40.394;-80.022;2024-03-02T14:22:30;6;5;
74333;PMS5003;62753;40.394;-80.022;2024-03-02T14:24:56;4;4;
74333;PMS5003;62753;40.394;-80.022;2024-03-02T14:27:23;3;2;
74333;PMS5003;62753;40.394;-80.022;2024-03-02T14:29:46;4;4;
74333;PMS5003;62753;40.394;-80.022;2024-03-02T14:32:12;3;3;
74333;PMS5003;62753;40.394;-80.022;2024-03-02T14:34:37;4;4;
74333;PMS5003;62753;40.394;-80.022;2024-03-02T14:37:04;2;2;
74333;PMS5003;62753;40.394;-80.022;2024-03-02T14:39:31;2;2;
74333;PMS5003;62753;40.394;-80.022;2024-03-02T14:41:53;3;3;
74333;PMS5003;62753;40.394;-80.022;2024-03-02T14:44:19;2;2;
74333;PMS5003;62753;40.394;-80.022;2024-03-02T14:46:46;3;2;
74333;PMS5003;62753;40.394;-80.022;2024-03-02T14:49:09;2;2;
74333;PMS5003;62753;40.394;-80.022;2024-03-02T14:51:36;2;2;
74333;PMS5003;62753;40.394;-80.022;2024-03-02T14:54:01;5;4;
74333;PMS5003;62753;40.394;-80.022;2024-03-02T14:56:26;3;3;
74333;PMS5003;62753;40.394;-80.022;2024-03-02T14:58:51;1;1;
74333;PMS5003;62753;40.394;-80.022;2024-03-02T15:01:18;2;2;
74333;PMS5003;62753;40.394;-80.022;2024-03-02T15:03:42;2;2;
74333;PMS5003;62753;40.394;-80.022;2024-03-02T15:06:07;2;2;
74333;PMS5003;62753;40.394;-80.022;2024-03-02T15:08:32;4;4;
74333;PMS5003;62753;40.394;-80.022;2024-03-02T15:10:58;3;2;
74333;PMS5003;62753;40.394;-80.022;2024-03-02T15:13:25;2;2;
74333;PMS5003;62753;40.394;-80.022;2024-03-02T15:15:49;3;3;
74333;PMS5003;62753;40.394;-80.022;2024-03-02T15:18:14;2;2;
74333;PMS5003;62753;40.394;-80.022;2024-03-02T15:20:39;4;3;
74333;PMS5003;62753;40.394;-80.022;2024-03-02T15:23:05;2;2;
74333;PMS5003;62753;40.394;-80.022;2024-03-02T15:25:30;4;4;
74333;PMS5003;62753;40.394;-80.022;2024-03-02T15:27:57;3;3;
74333;PMS5003;62753;40.394;-80.022;2024-03-02T15:30:22;3;3;
74333;PMS5003;62753;40.394;-80.022;2024-03-02T15:32:46;3;3;
74333;PMS5003;62753;40.394;-80.022;2024-03-02T15:35:12;2;2;
74333;PMS5003;62753;40.394;-80.022;2024-03-02T15:37:38;4;4;
74333;PMS5003;62753;40.394;-80.022;2024-03-02T15:40:07;5;4;
74333;PMS5003;62753;40.394;-80.022;2024-03-02T15:42:28;4;4;
74333;PMS5003;62753;40.394;-80.022;2024-03-02T15:44:54;5;5;
74333;PMS5003;62753;40.394;-80.022;2024-03-02T15:47:18;5;5;
74333;PMS5003;62753;40.394;-80.022;2024-03-02T15:49:47;6;6;
74333;PMS5003;62753;40.394;-80.022;2024-03-02T15:52:09;4;4;
74333;PMS5003;62753;40.394;-80.022;2024-03-02T15:54:36;4;4;
74333;PMS5003;62753;40.394;-80.022;2024-03-02T15:57:00;4;4;
74333;PMS5003;62753;40.394;-80.022;2024-03-02T15:59:25;5;5;
74333;PMS5003;62753;40.394;-80.022;2024-03-02T16:01:51;4;4;
74333;PMS5003;62753;40.394;-80.022;2024-03-02T16:04:16;5;4;